createdAt,value
2023-04-25T00:01:16.562Z,4.55
2023-04-25T00:04:18.320Z,4.57
2023-04-25T00:07:20.365Z,4.13
2023-04-25T00:10:22.029Z,4.28
2023-04-25T00:13:23.875Z,4.00
2023-04-25T00:16:25.677Z,4.60
2023-04-25T00:19:29.343Z,3.92
2023-04-25T00:22:30.948Z,4.82
2023-04-25T00:25:32.498Z,4.75
2023-04-25T00:28:34.003Z,4.30
2023-04-25T00:31:35.617Z,4.25
2023-04-25T00:34:37.177Z,4.10
2023-04-25T00:37:39.148Z,4.25
2023-04-25T00:40:40.633Z,4.15
2023-04-25T00:43:42.639Z,4.03
2023-04-25T00:46:44.716Z,3.70
2023-04-25T00:49:46.202Z,4.00
2023-04-25T00:52:47.810Z,4.20
2023-04-25T00:55:51.713Z,5.30
2023-04-25T00:58:57.391Z,4.30
2023-04-25T01:01:59.687Z,4.60
2023-04-25T01:05:01.932Z,3.95
2023-04-25T01:08:03.426Z,4.32
2023-04-25T01:11:05.571Z,4.30
2023-04-25T01:14:07.372Z,3.88
2023-04-25T01:17:09.991Z,3.95
2023-04-25T01:20:12.698Z,4.05
2023-04-25T01:23:15.338Z,3.97
2023-04-25T01:26:17.310Z,3.70
2023-04-25T01:29:19.887Z,4.43
2023-04-25T01:32:23.937Z,4.20
2023-04-25T01:38:29.339Z,4.85
2023-04-25T01:41:30.919Z,4.75
2023-04-25T01:44:32.435Z,4.55
2023-04-25T01:47:36.174Z,4.88
2023-04-25T01:50:39.430Z,4.70
2023-04-25T01:53:41.109Z,5.05
2023-04-25T01:56:43.243Z,4.28
2023-04-25T01:59:47.239Z,4.80
2023-04-25T02:03:08.065Z,4.43
2023-04-25T02:06:09.806Z,4.00
2023-04-25T02:09:14.660Z,4.63
2023-04-25T02:12:21.112Z,5.28
2023-04-25T02:15:39.713Z,4.50
2023-04-25T02:18:53.633Z,4.72
2023-04-25T02:21:55.567Z,4.47
2023-04-25T02:24:57.031Z,5.28
2023-04-25T02:27:58.526Z,4.40
2023-04-25T02:30:59.999Z,4.50
2023-04-25T02:34:01.539Z,5.45
2023-04-25T02:37:03.188Z,4.60
2023-04-25T02:40:05.481Z,5.38
2023-04-25T02:43:07.986Z,5.40
2023-04-25T02:46:09.520Z,5.30
2023-04-25T02:49:11.037Z,4.88
2023-04-25T02:52:13.228Z,5.00
2023-04-25T02:55:15.432Z,4.55
2023-04-25T02:58:18.605Z,4.90
2023-04-25T03:01:23.815Z,5.65
2023-04-25T03:04:25.772Z,5.80
2023-04-25T03:07:27.351Z,5.30
2023-04-25T03:10:28.855Z,4.78
2023-04-25T03:13:33.929Z,5.05
2023-04-25T03:16:35.518Z,4.80
2023-04-25T03:19:37.023Z,4.90
2023-04-25T03:22:38.795Z,5.45
2023-04-25T03:25:40.249Z,5.43
2023-04-25T03:28:42.928Z,5.20
2023-04-25T03:31:44.502Z,5.75
2023-04-25T03:34:46.240Z,5.40
2023-04-25T03:37:47.838Z,5.15
2023-04-25T03:40:55.095Z,5.05
2023-04-25T03:44:07.573Z,5.43
2023-04-25T03:47:09.107Z,5.10
2023-04-25T03:50:11.228Z,5.30
2023-04-25T03:53:12.751Z,5.50
2023-04-25T03:56:32.705Z,5.25
2023-04-25T03:59:41.618Z,5.20
2023-04-25T04:02:46.195Z,4.80
2023-04-25T04:05:48.486Z,5.32
2023-04-25T04:08:50.066Z,4.90
2023-04-25T04:11:51.919Z,4.75
2023-04-25T04:14:53.368Z,5.40
2023-04-25T04:17:55.778Z,4.78
2023-04-25T04:20:59.032Z,4.88
2023-04-25T04:24:02.821Z,5.43
2023-04-25T04:27:08.526Z,4.72
2023-04-25T04:30:30.494Z,5.43
2023-04-25T04:33:33.983Z,5.45
2023-04-25T04:36:38.313Z,5.35
2023-04-25T04:39:39.884Z,6.15
2023-04-25T04:42:59.180Z,6.22
2023-04-25T04:46:13.668Z,5.43
2023-04-25T04:49:50.954Z,5.50
2023-04-25T04:53:05.664Z,5.80
2023-04-25T04:56:26.266Z,5.78
2023-04-25T04:59:43.442Z,6.25
2023-04-25T05:03:14.150Z,5.63
2023-04-25T05:06:39.804Z,5.78
2023-04-25T05:09:53.889Z,5.20
2023-04-25T05:13:14.989Z,6.22
2023-04-25T05:16:28.326Z,5.60
2023-04-25T05:19:49.621Z,6.07
2023-04-25T05:23:13.983Z,5.72
2023-04-25T05:29:27.886Z,6.05
2023-04-25T05:32:41.449Z,5.32
2023-04-25T05:35:43.410Z,5.85
2023-04-25T05:38:46.468Z,6.60
2023-04-25T05:41:56.737Z,6.32
2023-04-25T05:45:18.994Z,7.47
2023-04-25T05:48:29.532Z,6.50
2023-04-25T05:51:40.470Z,6.00
2023-04-25T05:55:03.208Z,3.72
2023-04-25T05:58:08.001Z,4.60
2023-04-25T06:01:16.005Z,3.88
2023-04-25T06:04:18.413Z,4.00
2023-04-25T06:07:21.188Z,3.88
2023-04-25T06:10:23.680Z,1.92
2023-04-25T06:13:25.440Z,2.10
2023-04-25T06:16:27.216Z,2.05
2023-04-25T06:19:29.177Z,2.40
2023-04-25T06:22:30.691Z,2.17
2023-04-25T06:25:32.182Z,2.40
2023-04-25T06:28:34.855Z,2.20
2023-04-25T06:31:36.493Z,2.10
2023-04-25T06:34:38.173Z,1.45
2023-04-25T06:37:41.562Z,2.00
2023-04-25T06:40:43.228Z,1.88
2023-04-25T06:43:45.612Z,2.20
2023-04-25T06:46:59.071Z,2.30
2023-04-25T06:50:00.762Z,1.75
2023-04-25T06:53:03.103Z,2.10
2023-04-25T06:56:06.251Z,1.90
2023-04-25T06:59:26.839Z,2.15
2023-04-25T07:02:28.493Z,1.60
2023-04-25T07:05:30.249Z,1.75
2023-04-25T07:08:32.452Z,1.88
2023-04-25T07:11:34.431Z,1.75
2023-04-25T07:14:35.997Z,1.90
2023-04-25T07:17:37.729Z,2.05
2023-04-25T07:20:39.392Z,2.05
2023-04-25T07:23:42.083Z,2.20
2023-04-25T07:26:48.788Z,2.08
2023-04-25T07:30:07.341Z,2.67
2023-04-25T07:33:08.913Z,3.05
2023-04-25T07:36:10.348Z,2.92
2023-04-25T07:39:11.860Z,2.92
2023-04-25T07:42:14.161Z,2.92
2023-04-25T07:45:18.575Z,3.00
2023-04-25T07:48:20.730Z,3.13
2023-04-25T07:51:23.400Z,3.50
2023-04-25T07:54:27.299Z,3.72
2023-04-25T07:57:34.923Z,3.40
2023-04-25T08:00:37.539Z,3.65
2023-04-25T08:03:58.419Z,3.78
2023-04-25T08:07:17.193Z,3.83
2023-04-25T08:10:26.675Z,3.92
2023-04-25T08:13:28.408Z,3.60
2023-04-25T08:16:31.904Z,3.60
2023-04-25T08:19:33.769Z,3.63
2023-04-25T08:22:36.516Z,3.05
2023-04-25T08:25:57.975Z,2.55
2023-04-25T08:29:02.577Z,3.00
2023-04-25T08:32:04.219Z,3.10
2023-04-25T08:35:07.662Z,3.53
2023-04-25T08:38:09.342Z,3.60
2023-04-25T08:41:12.764Z,3.45
2023-04-25T08:44:14.335Z,3.50
2023-04-25T08:47:15.998Z,3.78
2023-04-25T08:50:23.759Z,3.70
2023-04-25T08:56:35.428Z,3.30
2023-04-25T08:59:40.394Z,4.10
2023-04-25T09:05:45.658Z,3.58
2023-04-25T09:08:51.094Z,3.88
2023-04-25T09:11:55.188Z,4.28
2023-04-25T09:15:10.165Z,4.00
2023-04-25T09:18:33.700Z,4.10
2023-04-25T09:21:36.456Z,3.90
2023-04-25T09:24:38.030Z,3.97
2023-04-25T09:27:53.207Z,4.00
2023-04-25T09:31:00.451Z,4.18
2023-04-25T09:34:07.917Z,4.10
2023-04-25T09:37:21.401Z,3.50
2023-04-25T09:40:43.075Z,3.97
2023-04-25T09:43:57.992Z,4.07
2023-04-25T09:47:03.821Z,4.38
2023-04-25T09:50:17.852Z,4.63
2023-04-25T09:53:22.873Z,5.13
2023-04-25T09:56:39.374Z,4.43
2023-04-25T10:02:49.770Z,4.00
2023-04-25T10:06:28.487Z,3.60
2023-04-25T10:09:33.240Z,3.93
2023-04-25T10:12:35.215Z,3.95
2023-04-25T10:15:40.330Z,3.70
2023-04-25T10:18:42.046Z,3.65
2023-04-25T10:21:53.509Z,3.88
2023-04-25T10:24:57.356Z,3.83
2023-04-25T10:28:00.850Z,4.07
2023-04-25T10:31:08.620Z,3.65
2023-04-25T10:34:10.589Z,3.97
2023-04-25T10:37:14.392Z,3.00
2023-04-25T10:40:22.934Z,3.78
2023-04-25T10:43:39.632Z,3.00
2023-04-25T10:46:41.478Z,3.58
2023-04-25T10:49:43.698Z,3.83
2023-04-25T10:52:45.550Z,3.28
2023-04-25T10:55:54.140Z,3.60
2023-04-25T10:59:07.445Z,3.60
2023-04-25T11:02:14.296Z,3.88
2023-04-25T11:05:43.991Z,3.60
2023-04-25T11:08:56.815Z,3.10
2023-04-25T11:11:59.653Z,4.43
2023-04-25T11:15:05.897Z,3.42
2023-04-25T11:18:09.739Z,3.67
2023-04-25T11:21:12.835Z,3.28
2023-04-25T11:24:14.387Z,3.47
2023-04-25T11:27:15.884Z,3.42
2023-04-25T11:30:17.880Z,3.67
2023-04-25T11:33:24.480Z,3.60
2023-04-25T11:36:27.011Z,3.33
2023-04-25T11:39:29.383Z,3.55
2023-04-25T11:42:34.170Z,3.22
2023-04-25T11:45:38.071Z,3.58
2023-04-25T11:48:43.704Z,3.28
2023-04-25T11:51:47.484Z,3.40
2023-04-25T11:54:49.081Z,3.30
2023-04-25T11:57:51.404Z,3.50
2023-04-25T12:00:53.087Z,3.15
2023-04-25T12:03:54.902Z,4.07
2023-04-25T12:06:56.633Z,3.78
2023-04-25T12:09:58.220Z,3.25
2023-04-25T12:12:59.715Z,3.50
2023-04-25T12:16:01.440Z,3.35
2023-04-25T12:19:03.632Z,3.22
2023-04-25T12:22:21.120Z,4.10
2023-04-25T12:25:43.023Z,4.78
2023-04-25T12:28:48.170Z,3.70
2023-04-25T12:31:51.095Z,4.47
2023-04-25T12:34:52.931Z,4.43
2023-04-25T12:37:54.418Z,3.63
2023-04-25T12:40:56.154Z,3.47
2023-04-25T12:43:57.805Z,2.75
2023-04-25T12:47:00.842Z,4.15
2023-04-25T12:50:02.587Z,3.77
2023-04-25T12:53:04.216Z,3.15
2023-04-25T12:56:06.531Z,3.80
2023-04-25T12:59:07.995Z,3.42
2023-04-25T13:02:09.606Z,3.22
2023-04-25T13:05:12.126Z,3.55
2023-04-25T13:08:13.683Z,3.30
2023-04-25T13:11:18.249Z,3.58
2023-04-25T13:14:19.750Z,3.50
2023-04-25T13:17:21.338Z,3.03
2023-04-25T13:20:23.451Z,3.33
2023-04-25T13:23:27.507Z,2.95
2023-04-25T13:29:30.494Z,3.50
2023-04-25T13:32:32.016Z,2.75
2023-04-25T13:35:35.610Z,3.10
2023-04-25T13:38:37.221Z,3.47
2023-04-25T13:41:38.695Z,2.88
2023-04-25T13:44:40.301Z,2.65
2023-04-25T13:47:41.790Z,2.35
2023-04-25T13:50:43.369Z,2.00
2023-04-25T13:53:46.337Z,2.33
2023-04-25T13:56:47.901Z,1.88
2023-04-25T13:59:49.434Z,2.20
2023-04-25T14:02:51.403Z,2.45
2023-04-25T14:05:53.010Z,2.38
2023-04-25T14:08:55.358Z,2.40
2023-04-25T14:11:57.516Z,2.58
2023-04-25T14:14:59.071Z,2.50
2023-04-25T14:18:01.345Z,2.33
2023-04-25T14:21:02.972Z,3.20
2023-04-25T14:24:06.785Z,2.40
2023-04-25T14:30:10.789Z,2.08
2023-04-25T14:33:12.562Z,2.67
2023-04-25T14:36:15.198Z,2.10
2023-04-25T14:39:17.537Z,1.80
2023-04-25T14:42:19.068Z,1.88
2023-04-25T14:45:20.748Z,3.17
2023-04-25T14:48:22.384Z,2.63
2023-04-25T14:51:24.062Z,4.10
2023-04-25T14:54:26.494Z,2.85
2023-04-25T14:57:28.205Z,3.78
2023-04-25T15:00:31.351Z,2.78
2023-04-25T15:03:33.557Z,2.37
2023-04-25T15:06:35.184Z,2.90
2023-04-25T15:09:36.682Z,3.08
2023-04-25T15:12:38.619Z,2.80
2023-04-25T15:15:40.392Z,2.63
2023-04-25T15:18:41.996Z,2.75
2023-04-25T15:21:43.537Z,2.45
2023-04-25T15:24:45.070Z,2.90
2023-04-25T15:27:49.169Z,2.97
2023-04-25T15:33:53.102Z,2.13
2023-04-25T15:36:54.752Z,2.65
2023-04-25T15:40:11.742Z,2.50
2023-04-25T15:43:15.967Z,2.78
2023-04-25T15:46:17.798Z,2.35
2023-04-25T15:49:21.568Z,2.92
2023-04-25T15:52:23.042Z,2.80
2023-04-25T15:55:26.880Z,2.67
2023-04-25T15:58:28.425Z,3.20
2023-04-25T16:01:31.227Z,2.92
2023-04-25T16:04:35.595Z,2.75
2023-04-25T16:07:38.174Z,2.70
2023-04-25T16:10:39.766Z,2.95
2023-04-25T16:13:41.507Z,2.80
2023-04-25T16:16:44.751Z,3.17
2023-04-25T16:19:46.388Z,3.07
2023-04-25T16:22:48.012Z,3.35
2023-04-25T16:25:50.734Z,3.63
2023-04-25T16:28:52.570Z,3.25
2023-04-25T16:31:54.203Z,3.00
2023-04-25T16:34:57.497Z,3.40
2023-04-25T16:38:01.025Z,2.80
2023-04-25T16:41:02.725Z,3.20
2023-04-25T16:44:06.701Z,3.00
2023-04-25T16:47:08.330Z,3.35
2023-04-25T16:50:10.153Z,2.13
2023-04-25T16:53:11.983Z,3.65
2023-04-25T16:56:13.507Z,2.13
2023-04-25T16:59:14.936Z,2.97
2023-04-25T17:02:17.171Z,2.78
2023-04-25T17:05:18.832Z,2.08
2023-04-25T17:08:20.351Z,3.15
2023-04-25T17:11:21.892Z,3.65
2023-04-25T17:14:23.424Z,2.42
2023-04-25T17:17:26.571Z,2.40
2023-04-25T17:20:28.105Z,2.88
2023-04-25T17:23:32.297Z,2.63
2023-04-25T17:29:35.621Z,3.05
2023-04-25T17:32:37.166Z,3.00
2023-04-25T17:35:38.729Z,2.90
2023-04-25T17:38:40.394Z,3.05
2023-04-25T17:41:41.875Z,2.60
2023-04-25T17:44:43.396Z,4.13
2023-04-25T17:47:45.346Z,3.20
2023-04-25T17:50:46.899Z,3.17
2023-04-25T17:53:48.486Z,2.67
2023-04-25T17:56:50.800Z,2.60
2023-04-25T17:59:53.466Z,2.42
2023-04-25T18:02:55.136Z,2.30
2023-04-25T18:05:56.703Z,2.90
2023-04-25T18:08:58.629Z,2.63
2023-04-25T18:12:01.274Z,2.38
2023-04-25T18:15:06.772Z,2.70
2023-04-25T18:18:15.108Z,2.00
2023-04-25T18:21:16.876Z,4.13
2023-04-25T18:24:18.526Z,7.63
2023-04-25T18:27:20.431Z,3.67
2023-04-25T18:30:22.026Z,2.78
2023-04-25T18:33:23.616Z,2.88
2023-04-25T18:36:25.106Z,2.78
2023-04-25T18:39:27.098Z,2.92
2023-04-25T18:42:29.003Z,3.88
2023-04-25T18:45:30.608Z,3.53
2023-04-25T18:48:32.085Z,3.45
2023-04-25T18:51:33.660Z,3.65
2023-04-25T18:54:35.178Z,3.47
2023-04-25T18:57:37.978Z,3.90
2023-04-25T19:00:40.020Z,3.35
2023-04-25T19:03:41.933Z,4.57
2023-04-25T19:06:49.247Z,4.05
2023-04-25T19:09:50.770Z,3.80
2023-04-25T19:12:52.625Z,10.13
2023-04-25T19:15:54.297Z,5.75
2023-04-25T19:18:56.806Z,6.60
2023-04-25T19:21:58.910Z,4.90
2023-04-25T19:25:10.072Z,3.80
2023-04-25T19:28:12.888Z,3.90
2023-04-25T19:31:14.479Z,4.07
2023-04-25T19:34:16.155Z,3.90
2023-04-25T19:37:17.663Z,4.05
2023-04-25T19:40:21.136Z,4.18
2023-04-25T19:43:22.637Z,4.40
2023-04-25T19:46:24.856Z,3.88
2023-04-25T19:49:27.095Z,4.10
2023-04-25T19:52:28.652Z,4.80
2023-04-25T19:55:30.156Z,4.70
2023-04-25T19:58:32.216Z,4.10
2023-04-25T20:01:33.826Z,3.75
2023-04-25T20:04:35.329Z,4.25
2023-04-25T20:07:36.974Z,3.90
2023-04-25T20:10:38.489Z,4.60
2023-04-25T20:13:40.029Z,3.50
2023-04-25T20:16:41.800Z,3.22
2023-04-25T20:19:43.540Z,2.97
2023-04-25T20:22:45.135Z,3.60
2023-04-25T20:25:46.731Z,3.28
2023-04-25T20:28:48.243Z,3.55
2023-04-25T20:31:50.882Z,3.50
2023-04-25T20:34:52.464Z,3.40
2023-04-25T20:37:54.015Z,3.50
2023-04-25T20:40:56.504Z,3.95
2023-04-25T20:43:58.186Z,3.80
2023-04-25T20:46:59.988Z,4.38
2023-04-25T20:50:03.801Z,3.85
2023-04-25T20:53:05.674Z,4.20
2023-04-25T20:56:07.202Z,4.00
2023-04-25T20:59:09.168Z,3.95
2023-04-25T21:02:12.388Z,3.90
2023-04-25T21:05:14.059Z,4.03
2023-04-25T21:08:15.984Z,3.78
2023-04-25T21:11:19.413Z,3.80
2023-04-25T21:14:21.542Z,3.28
2023-04-25T21:17:23.127Z,2.65
2023-04-25T21:20:24.619Z,2.30
2023-04-25T21:23:26.068Z,1.83
2023-04-25T21:26:27.636Z,1.88
2023-04-25T21:29:29.121Z,1.77
2023-04-25T21:32:30.624Z,2.40
2023-04-25T21:35:32.229Z,1.75
2023-04-25T21:38:33.809Z,1.88
2023-04-25T21:41:37.439Z,1.73
2023-04-25T21:44:39.930Z,1.55
2023-04-25T21:47:41.984Z,1.70
2023-04-25T21:50:43.565Z,1.85
2023-04-25T21:53:47.598Z,2.30
2023-04-25T21:56:49.589Z,1.90
2023-04-25T21:59:51.142Z,2.00
2023-04-25T22:02:56.091Z,1.80
2023-04-25T22:05:58.848Z,1.90
2023-04-25T22:09:00.325Z,2.45
2023-04-25T22:12:03.533Z,2.20
2023-04-25T22:15:05.630Z,1.70
2023-04-25T22:18:08.052Z,1.80
2023-04-25T22:21:10.151Z,2.00
2023-04-25T22:24:11.669Z,2.17
2023-04-25T22:27:13.135Z,1.70
2023-04-25T22:30:14.849Z,1.75
2023-04-25T22:33:17.668Z,2.72
2023-04-25T22:36:19.564Z,1.77
2023-04-25T22:39:21.089Z,1.67
2023-04-25T22:42:22.614Z,2.10
2023-04-25T22:45:24.504Z,1.75
2023-04-25T22:48:26.005Z,1.85
2023-04-25T22:51:27.443Z,2.05
2023-04-25T22:54:28.896Z,2.40
2023-04-25T22:57:31.308Z,2.40
2023-04-25T23:00:34.392Z,2.08
2023-04-25T23:03:36.379Z,2.25
2023-04-25T23:06:38.631Z,2.03
2023-04-25T23:09:41.744Z,2.05
2023-04-25T23:12:43.864Z,2.22
2023-04-25T23:15:45.320Z,2.35
2023-04-25T23:18:47.005Z,2.22
2023-04-25T23:21:48.888Z,1.92
2023-04-25T23:24:51.126Z,2.30
2023-04-25T23:27:52.980Z,2.10
2023-04-25T23:30:54.517Z,2.35
2023-04-25T23:33:56.052Z,2.53
2023-04-25T23:36:58.080Z,2.88
2023-04-25T23:39:59.854Z,2.28
2023-04-25T23:43:02.386Z,2.22
2023-04-25T23:46:04.278Z,2.60
2023-04-25T23:49:05.738Z,2.25
2023-04-25T23:52:07.189Z,2.08
2023-04-25T23:55:09.824Z,2.47
2023-04-25T23:58:11.430Z,2.33
